createdAt,value
2023-05-10T06:37:08.825Z,47.58
2023-05-10T06:39:35.203Z,47.39
2023-05-10T06:42:02.673Z,48.97
2023-05-10T06:44:29.053Z,47.40
2023-05-10T06:46:56.690Z,48.23
2023-05-10T06:49:23.094Z,48.03
2023-05-10T06:51:49.991Z,47.16
2023-05-10T06:54:16.367Z,47.60
2023-05-10T06:56:42.729Z,47.02
2023-05-10T06:59:09.111Z,47.34
2023-05-10T07:01:35.589Z,46.97
2023-05-10T07:04:01.998Z,46.60
2023-05-10T07:06:33.509Z,46.22
2023-05-10T07:09:01.331Z,45.86
2023-05-10T07:11:27.762Z,46.56
2023-05-10T07:13:54.153Z,45.88
2023-05-10T07:16:20.653Z,45.81
2023-05-10T07:18:47.121Z,45.78
2023-05-10T07:21:13.531Z,45.90
2023-05-10T07:23:39.988Z,45.91
2023-05-10T07:26:06.368Z,45.40
2023-05-10T07:28:32.769Z,45.57
2023-05-10T07:30:59.197Z,45.06
2023-05-10T07:33:25.619Z,45.11
2023-05-10T07:35:51.983Z,44.95
2023-05-10T07:38:18.453Z,45.21
2023-05-10T07:40:44.877Z,45.28
2023-05-10T07:43:11.309Z,44.82
2023-05-10T07:45:37.755Z,44.79
2023-05-10T07:48:04.193Z,44.98
2023-05-10T07:50:30.742Z,44.26
2023-05-10T07:52:57.486Z,44.45
2023-05-10T07:55:23.852Z,44.02
2023-05-10T07:57:50.259Z,43.85
2023-05-10T08:00:21.121Z,44.01
2023-05-10T08:02:48.186Z,43.77
2023-05-10T08:05:15.681Z,43.37
2023-05-10T08:07:43.303Z,43.39
2023-05-10T08:10:11.929Z,42.94
2023-05-10T08:12:39.198Z,43.15
2023-05-10T08:15:06.209Z,43.25
2023-05-10T08:17:32.719Z,43.06
2023-05-10T08:19:59.120Z,43.17
2023-05-10T08:22:25.508Z,42.57
2023-05-10T08:24:51.928Z,42.36
2023-05-10T08:27:18.383Z,42.61
2023-05-10T08:29:50.212Z,42.44
2023-05-10T08:32:17.139Z,42.26
2023-05-10T08:34:43.639Z,41.93
2023-05-10T08:37:11.458Z,41.57
2023-05-10T08:39:38.234Z,41.65
2023-05-10T08:42:05.712Z,41.57
2023-05-10T08:44:33.490Z,41.31
2023-05-10T08:47:03.408Z,40.87
2023-05-10T08:49:32.650Z,40.58
2023-05-10T08:52:02.776Z,40.41
2023-05-10T08:54:29.212Z,41.75
2023-05-10T08:56:55.780Z,40.07
2023-05-10T08:59:22.525Z,40.43
2023-05-10T09:01:50.356Z,40.06
2023-05-10T09:04:17.498Z,40.13
2023-05-10T09:06:44.053Z,40.37
2023-05-10T09:09:10.908Z,40.00
2023-05-10T09:11:37.483Z,39.79
2023-05-10T09:14:04.008Z,39.55
2023-05-10T09:16:30.585Z,39.99
2023-05-10T09:18:57.085Z,39.77
2023-05-10T09:21:23.512Z,39.30
2023-05-10T09:23:51.223Z,39.30
2023-05-10T09:26:18.396Z,39.21
2023-05-10T09:28:53.430Z,38.84
2023-05-10T09:31:20.151Z,38.80
2023-05-10T09:33:47.984Z,38.76
2023-05-10T09:36:14.901Z,39.08
2023-05-10T09:38:55.713Z,38.75
2023-05-10T09:41:24.104Z,39.05
2023-05-10T09:43:50.746Z,38.62
2023-05-10T09:46:17.481Z,38.59
2023-05-10T09:48:48.554Z,38.49
2023-05-10T09:51:25.768Z,38.27
2023-05-10T09:54:11.140Z,38.11
2023-05-10T09:56:41.275Z,37.87
2023-05-10T09:59:10.276Z,38.31
2023-05-10T10:01:37.453Z,37.85
2023-05-10T10:04:05.926Z,38.00
2023-05-10T10:06:39.922Z,38.28
2023-05-10T10:09:07.440Z,37.87
2023-05-10T10:11:38.558Z,38.37
2023-05-10T10:14:06.208Z,37.17
2023-05-10T10:16:33.172Z,36.73
2023-05-10T10:18:59.777Z,36.59
2023-05-10T10:21:26.534Z,36.93
2023-05-10T10:23:53.965Z,36.95
2023-05-10T10:26:22.511Z,36.95
2023-05-10T10:29:13.888Z,36.19
2023-05-10T10:31:47.098Z,36.52
2023-05-10T10:34:27.939Z,36.54
2023-05-10T10:36:55.632Z,35.74
2023-05-10T10:39:22.172Z,35.62
2023-05-10T10:41:52.807Z,35.90
2023-05-10T10:44:31.871Z,35.62
2023-05-10T10:47:19.400Z,35.39
2023-05-10T10:50:03.227Z,36.01
2023-05-10T10:52:35.154Z,35.10
2023-05-10T10:55:12.001Z,34.80
2023-05-10T10:57:41.327Z,34.58
2023-05-10T11:00:28.086Z,34.68
2023-05-10T11:03:07.274Z,34.45
2023-05-10T11:05:33.670Z,34.15
2023-05-10T11:08:01.212Z,34.43
2023-05-10T11:10:28.189Z,34.20
2023-05-10T11:13:03.976Z,34.04
2023-05-10T11:15:32.315Z,34.12
2023-05-10T11:17:58.874Z,33.81
2023-05-10T11:20:34.044Z,33.58
2023-05-10T11:23:13.807Z,33.17
2023-05-10T11:25:45.059Z,33.17
2023-05-10T11:28:13.670Z,33.46
2023-05-10T11:30:41.421Z,33.30
2023-05-10T11:33:09.171Z,33.01
2023-05-10T11:35:42.484Z,33.23
2023-05-10T11:38:11.171Z,33.26
2023-05-10T11:40:38.611Z,32.03
2023-05-10T11:43:05.499Z,32.15
2023-05-10T11:45:35.921Z,32.23
2023-05-10T11:48:03.577Z,32.60
2023-05-10T11:50:30.036Z,32.23
2023-05-10T11:52:58.018Z,31.74
2023-05-10T11:55:25.253Z,30.78
2023-05-10T11:57:55.730Z,30.26
2023-05-10T12:00:22.471Z,30.37
2023-05-10T12:02:49.744Z,30.74
2023-05-10T12:05:17.220Z,30.65
2023-05-10T12:07:43.859Z,30.52
2023-05-10T12:10:13.163Z,30.63
2023-05-10T12:12:43.040Z,30.07
2023-05-10T12:15:17.698Z,30.23
2023-05-10T12:17:45.645Z,30.28
2023-05-10T12:20:17.547Z,30.03
2023-05-10T12:22:50.409Z,29.58
2023-05-10T12:25:17.453Z,29.98
2023-05-10T12:27:52.514Z,29.71
2023-05-10T12:30:26.861Z,29.29
2023-05-10T12:32:54.141Z,29.66
2023-05-10T12:35:22.953Z,29.55
2023-05-10T12:37:49.328Z,28.94
2023-05-10T12:40:15.857Z,29.11
2023-05-10T12:42:42.457Z,29.59
2023-05-10T12:45:09.781Z,28.93
2023-05-10T12:47:36.766Z,28.83
2023-05-10T12:50:04.126Z,29.20
2023-05-10T12:52:32.964Z,28.72
2023-05-10T12:55:00.574Z,28.96
2023-05-10T12:57:28.030Z,29.65
2023-05-10T12:59:55.057Z,29.19
2023-05-10T13:02:22.239Z,29.76
2023-05-10T13:04:50.922Z,30.14
2023-05-10T13:07:17.564Z,28.21
2023-05-10T13:09:44.332Z,27.28
2023-05-10T13:12:10.817Z,26.51
2023-05-10T13:14:37.197Z,25.81
2023-05-10T13:17:03.628Z,24.33
2023-05-10T13:19:30.075Z,26.04
2023-05-10T13:21:56.510Z,24.46
2023-05-10T13:24:23.242Z,23.62
2023-05-10T13:26:49.691Z,22.96
2023-05-10T13:29:18.346Z,22.40
2023-05-10T13:31:44.898Z,23.09
2023-05-10T13:34:11.291Z,21.77
2023-05-10T13:36:37.803Z,21.10
2023-05-10T13:39:06.180Z,19.53
2023-05-10T13:41:32.758Z,19.27
2023-05-10T13:43:59.242Z,18.04
2023-05-10T13:46:25.733Z,20.54
2023-05-10T13:48:52.197Z,21.03
2023-05-10T13:51:18.632Z,17.16
2023-05-10T13:53:45.020Z,14.75
2023-05-10T13:56:11.415Z,12.39
2023-05-10T13:58:37.977Z,13.38
2023-05-10T14:01:05.803Z,13.45
2023-05-10T14:03:32.327Z,12.94
2023-05-10T14:05:58.999Z,13.16
2023-05-10T14:08:25.374Z,17.39
2023-05-10T14:10:53.214Z,14.67
2023-05-10T14:13:19.606Z,16.10
2023-05-10T14:15:46.030Z,16.17
2023-05-10T14:18:12.438Z,15.69
2023-05-10T14:20:38.872Z,18.13
2023-05-10T14:23:05.343Z,16.80
2023-05-10T14:25:31.782Z,11.88
2023-05-10T14:27:58.350Z,11.96
2023-05-10T14:30:24.745Z,12.04
2023-05-10T14:32:51.269Z,11.30
2023-05-10T14:35:19.428Z,11.08
2023-05-10T14:37:46.383Z,10.65
2023-05-10T14:40:13.347Z,10.83
2023-05-10T14:42:39.761Z,13.45
2023-05-10T14:45:06.608Z,10.40
2023-05-10T14:47:33.027Z,9.60
2023-05-10T14:49:59.471Z,11.01
2023-05-10T14:52:25.977Z,10.26
2023-05-10T14:54:52.577Z,11.33
2023-05-10T14:57:18.963Z,14.80
2023-05-10T14:59:45.312Z,13.49
2023-05-10T15:02:12.492Z,13.89
2023-05-10T15:04:39.328Z,11.96
2023-05-10T15:07:06.710Z,16.51
2023-05-10T15:09:33.086Z,18.43
2023-05-10T15:11:59.486Z,18.63
2023-05-10T15:14:25.884Z,13.90
2023-05-10T15:16:52.267Z,14.80
2023-05-10T15:19:18.711Z,17.73
2023-05-10T15:21:45.563Z,19.50
2023-05-10T15:24:12.004Z,13.93
2023-05-10T15:26:38.408Z,11.64
2023-05-10T15:29:04.858Z,13.72
2023-05-10T15:31:31.373Z,18.21
2023-05-10T15:33:59.916Z,19.63
2023-05-10T15:36:26.288Z,20.96
2023-05-10T15:38:53.832Z,17.54
2023-05-10T15:41:22.167Z,19.22
2023-05-10T15:43:48.792Z,20.38
2023-05-10T15:46:15.229Z,20.76
2023-05-10T15:48:41.644Z,22.62
2023-05-10T15:51:07.992Z,21.50
2023-05-10T15:53:34.363Z,22.11
2023-05-10T15:56:00.821Z,22.08
2023-05-10T15:58:27.230Z,22.83
2023-05-10T16:00:53.774Z,22.57
2023-05-10T16:03:23.257Z,19.50
2023-05-10T16:05:49.629Z,17.36
2023-05-10T16:08:16.005Z,20.83
2023-05-10T16:10:42.406Z,23.04
2023-05-10T16:13:08.833Z,24.55
2023-05-10T16:15:35.219Z,24.26
2023-05-10T16:18:01.725Z,24.24
2023-05-10T16:20:28.250Z,25.31
2023-05-10T16:22:54.640Z,20.59
2023-05-10T16:25:21.227Z,20.59
2023-05-10T16:27:47.606Z,23.80
2023-05-10T16:30:14.272Z,25.52
2023-05-10T16:32:40.659Z,27.13
2023-05-10T16:35:07.754Z,31.52
2023-05-10T16:37:34.148Z,33.97
2023-05-10T16:40:00.650Z,36.05
2023-05-10T16:42:28.126Z,34.01
2023-05-10T16:44:54.862Z,37.01
2023-05-10T16:47:21.243Z,37.79
2023-05-10T16:49:47.669Z,38.12
2023-05-10T16:52:14.084Z,39.06
2023-05-10T16:54:40.436Z,40.33
2023-05-10T16:57:07.348Z,36.56
2023-05-10T16:59:33.964Z,37.89
2023-05-10T17:02:00.443Z,38.22
2023-05-10T17:04:27.050Z,41.55
2023-05-10T17:06:53.437Z,40.45
2023-05-10T17:09:20.567Z,41.22
2023-05-10T17:11:47.101Z,44.69
2023-05-10T17:14:13.491Z,45.42
2023-05-10T17:16:39.996Z,46.88
2023-05-10T17:19:06.630Z,47.84
2023-05-10T17:21:33.050Z,45.25
2023-05-10T17:23:59.442Z,47.21
2023-05-10T17:26:27.468Z,47.70
2023-05-10T17:28:54.638Z,49.51
2023-05-10T17:31:21.071Z,49.93
2023-05-10T17:33:47.472Z,48.46
2023-05-10T17:36:13.844Z,48.75
2023-05-10T17:38:40.235Z,46.48
2023-05-10T17:41:06.659Z,47.16
2023-05-10T17:43:33.030Z,49.50
2023-05-10T17:45:59.601Z,51.34
2023-05-10T17:48:26.069Z,50.88
2023-05-10T17:50:52.510Z,53.45
2023-05-10T17:53:19.287Z,52.86
2023-05-10T17:55:45.681Z,53.78
2023-05-10T17:58:12.559Z,52.47
2023-05-10T18:00:39.133Z,52.54
2023-05-10T18:03:05.846Z,54.21
2023-05-10T18:05:36.123Z,53.09
2023-05-10T18:08:03.207Z,53.74
2023-05-10T18:10:29.649Z,53.40
2023-05-10T18:12:56.771Z,53.82
2023-05-10T18:15:23.785Z,53.62
2023-05-10T18:17:50.452Z,53.93
2023-05-10T18:20:16.869Z,54.41
2023-05-10T18:22:43.373Z,55.24
2023-05-10T18:25:10.230Z,54.48
2023-05-10T18:27:36.732Z,55.57
2023-05-10T18:30:03.164Z,54.86
2023-05-10T18:32:29.654Z,55.06
2023-05-10T18:34:57.368Z,56.07
2023-05-10T18:37:23.978Z,56.39
2023-05-10T18:39:50.772Z,54.96
2023-05-10T18:42:17.466Z,55.69
2023-05-10T18:44:43.886Z,55.80
2023-05-10T18:47:10.241Z,56.87
2023-05-10T18:49:36.610Z,54.96
2023-05-10T18:52:03.020Z,55.81
2023-05-10T18:54:29.974Z,57.14
2023-05-10T18:56:57.300Z,55.77
2023-05-10T18:59:23.776Z,56.73
2023-05-10T19:01:51.294Z,57.87
2023-05-10T19:04:17.912Z,57.10
2023-05-10T19:06:44.445Z,57.48
2023-05-10T19:09:10.888Z,57.85
2023-05-10T19:11:37.293Z,58.40
2023-05-10T19:14:05.632Z,58.31
2023-05-10T19:16:35.860Z,58.77
2023-05-10T19:19:02.816Z,60.11
2023-05-10T19:21:31.156Z,59.56
2023-05-10T19:23:58.454Z,59.51
2023-05-10T19:26:24.823Z,59.88
2023-05-10T19:28:52.409Z,59.97
2023-05-10T19:31:19.735Z,60.23
2023-05-10T19:33:46.876Z,60.07
2023-05-10T19:36:13.423Z,60.00
2023-05-10T19:38:39.882Z,60.14
2023-05-10T19:41:06.286Z,59.63
2023-05-10T19:43:38.312Z,59.42
2023-05-10T19:46:04.683Z,59.90
2023-05-10T19:48:31.730Z,60.26
2023-05-10T19:51:02.996Z,59.97
2023-05-10T19:53:29.869Z,59.37
2023-05-10T19:55:56.406Z,59.45
2023-05-10T19:58:23.435Z,60.94
2023-05-10T20:00:50.005Z,60.30
2023-05-10T20:03:16.608Z,60.50
2023-05-10T20:05:43.036Z,60.01
2023-05-10T20:08:09.400Z,60.84
2023-05-10T20:10:35.813Z,61.43
2023-05-10T20:13:02.196Z,60.70
2023-05-10T20:15:29.008Z,61.27
2023-05-10T20:17:55.462Z,61.21
2023-05-10T20:20:22.091Z,60.57
2023-05-10T20:22:48.605Z,60.68
2023-05-10T20:25:16.203Z,61.29
2023-05-10T20:27:43.068Z,61.81
2023-05-10T20:30:10.406Z,61.29
2023-05-10T20:32:37.920Z,60.88
2023-05-10T20:35:05.316Z,62.55
2023-05-10T20:37:31.786Z,61.05
2023-05-10T20:39:58.210Z,61.08
2023-05-10T20:42:24.641Z,63.00
2023-05-10T20:44:51.111Z,63.60
2023-05-10T20:47:18.069Z,63.00
2023-05-10T20:49:44.429Z,63.60
2023-05-10T20:52:10.827Z,63.53
2023-05-10T20:54:37.220Z,62.65
2023-05-10T20:57:03.615Z,63.94
2023-05-10T20:59:29.984Z,63.24
2023-05-10T21:01:57.306Z,63.67
2023-05-10T21:04:24.590Z,62.53
2023-05-10T21:06:51.639Z,62.95
2023-05-10T21:09:18.046Z,63.24
2023-05-10T21:11:44.484Z,64.04
2023-05-10T21:14:10.921Z,63.15
2023-05-10T21:16:37.361Z,63.97
2023-05-10T21:19:03.805Z,64.25
2023-05-10T21:21:30.357Z,64.03
2023-05-10T21:23:56.738Z,64.01
2023-05-10T21:26:23.233Z,63.66
2023-05-10T21:28:49.651Z,64.54
2023-05-10T21:31:16.080Z,63.77
2023-05-10T21:33:42.487Z,63.22
2023-05-10T21:36:09.513Z,63.14
2023-05-10T21:38:35.981Z,63.71
2023-05-10T21:41:06.790Z,63.62
2023-05-10T21:43:33.474Z,63.80
2023-05-10T21:45:59.915Z,63.88
2023-05-10T21:48:26.399Z,63.12
2023-05-10T21:50:52.773Z,62.77
2023-05-10T21:53:19.693Z,63.21
2023-05-10T21:55:46.081Z,64.15
2023-05-10T21:58:12.482Z,62.34
2023-05-10T22:00:38.916Z,61.90
2023-05-10T22:03:05.504Z,62.84
2023-05-10T22:05:32.076Z,62.59
2023-05-10T22:07:58.459Z,62.90
2023-05-10T22:10:24.840Z,63.15
2023-05-10T22:12:51.647Z,62.75
2023-05-10T22:15:18.154Z,62.92
2023-05-10T22:17:44.593Z,62.40
2023-05-10T22:20:11.090Z,62.61
2023-05-10T22:22:37.556Z,63.06
2023-05-10T22:25:08.342Z,63.24
2023-05-10T22:27:34.966Z,63.28
2023-05-10T22:30:01.560Z,63.98
2023-05-10T22:32:28.062Z,63.82
2023-05-10T22:34:54.535Z,63.58
2023-05-10T22:37:20.909Z,63.48
2023-05-10T22:39:47.275Z,64.45
2023-05-10T22:42:13.652Z,64.86
2023-05-10T22:44:40.035Z,64.23
2023-05-10T22:47:06.803Z,64.33
2023-05-10T22:49:33.715Z,64.47
2023-05-10T22:52:00.523Z,64.27
2023-05-10T22:54:27.178Z,64.96
2023-05-10T22:56:53.853Z,65.97
2023-05-10T22:59:20.654Z,64.93
2023-05-10T23:01:48.849Z,64.17
2023-05-10T23:04:15.783Z,65.06
2023-05-10T23:06:42.206Z,64.82
2023-05-10T23:09:08.983Z,65.31
2023-05-10T23:11:35.362Z,64.80
2023-05-10T23:14:01.786Z,64.77
2023-05-10T23:16:28.177Z,64.72
2023-05-10T23:18:54.774Z,64.86
2023-05-10T23:21:21.452Z,64.83
2023-05-10T23:23:47.994Z,64.75
2023-05-10T23:26:14.435Z,64.44
2023-05-10T23:28:41.034Z,64.57
2023-05-10T23:31:07.398Z,66.20
2023-05-10T23:33:33.782Z,65.36
2023-05-10T23:36:00.176Z,65.94
2023-05-10T23:38:26.964Z,66.87
2023-05-10T23:40:53.447Z,67.27
2023-05-10T23:43:20.766Z,66.62
2023-05-10T23:45:54.733Z,66.54
2023-05-10T23:48:21.527Z,66.46
2023-05-10T23:50:47.915Z,65.79
2023-05-10T23:53:14.380Z,65.09
2023-05-10T23:55:40.758Z,67.00
2023-05-10T23:58:07.120Z,66.35
